Time;durP1;ratioP1;P1;durP2;ratioP2;P2;SDS_P1;SDS_P2;PMS_P1;PMS_P2;Temp;Humidity;BMP_temperature;BMP_pressure;BME280_temperature;BME280_humidity;BME280_pressure;Samples;Min_cycle;Max_cycle;Signal;HPM_P1;HPM_P2
2022/03/27 00:02:22;;;;;;;4.97;2.33;;;2.80;99.90;;;;;;4450979;32;20588;-70
2022/03/27 00:04:49;;;;;;;6.33;2.27;;;2.80;99.90;;;;;;4450769;32;20227;-70
2022/03/27 00:07:17;;;;;;;5.67;2.30;;;2.80;99.90;;;;;;4450955;32;20516;-71
2022/03/27 00:09:44;;;;;;;6.30;2.37;;;2.90;99.90;;;;;;4451699;32;20186;-70
2022/03/27 00:12:12;;;;;;;6.97;2.20;;;2.90;99.90;;;;;;4451730;32;20194;-70
2022/03/27 00:14:39;;;;;;;5.63;2.30;;;2.80;99.90;;;;;;4449830;32;20193;-70
2022/03/27 00:17:06;;;;;;;6.80;2.80;;;2.80;99.90;;;;;;4452536;32;20192;-70
2022/03/27 00:19:33;;;;;;;9.37;2.40;;;2.70;99.90;;;;;;4450853;32;20163;-70
2022/03/27 00:22:01;;;;;;;5.23;2.40;;;2.60;99.90;;;;;;4451690;32;20425;-70
2022/03/27 00:24:28;;;;;;;7.77;2.90;;;2.50;99.90;;;;;;4440620;32;20157;-70
2022/03/27 00:26:58;;;;;;;7.77;2.40;;;2.50;99.90;;;;;;4440405;32;20167;-70
2022/03/27 00:29:26;;;;;;;5.87;2.37;;;2.40;99.90;;;;;;4441437;32;20210;-70
2022/03/27 00:31:53;;;;;;;5.80;2.30;;;2.40;99.90;;;;;;4440943;32;20477;-70
2022/03/27 00:34:21;;;;;;;6.40;2.23;;;2.40;99.90;;;;;;4440649;32;20439;-70
2022/03/27 00:36:49;;;;;;;5.13;2.10;;;2.40;99.90;;;;;;4440228;32;20186;-71
2022/03/27 00:39:18;;;;;;;6.63;2.50;;;2.40;99.90;;;;;;4439740;32;20176;-71
2022/03/27 00:41:45;;;;;;;5.70;2.40;;;2.40;99.90;;;;;;4439980;32;20178;-70
2022/03/27 00:44:13;;;;;;;4.43;2.13;;;2.40;99.90;;;;;;4439017;32;20194;-70
2022/03/27 00:46:41;;;;;;;6.23;2.30;;;2.40;99.90;;;;;;4439850;32;20480;-70
2022/03/27 00:49:08;;;;;;;6.17;2.30;;;2.40;99.90;;;;;;4440282;32;20454;-70
2022/03/27 00:51:35;;;;;;;8.23;2.20;;;2.40;99.90;;;;;;4441247;32;20178;-70
2022/03/27 00:54:04;;;;;;;6.40;2.20;;;2.40;99.90;;;;;;4440972;32;20392;-70
2022/03/27 00:56:31;;;;;;;5.57;1.90;;;2.40;99.90;;;;;;4439131;32;20195;-70
2022/03/27 00:58:59;;;;;;;5.87;2.10;;;2.40;99.90;;;;;;4441030;32;20455;-70
2022/03/27 01:01:35;;;;;;;7.13;2.10;;;2.40;99.90;;;;;;4439815;32;20194;-70
2022/03/27 01:04:07;;;;;;;6.10;2.03;;;2.40;99.90;;;;;;4438645;32;20585;-70
2022/03/27 01:06:44;;;;;;;6.00;2.17;;;2.40;99.90;;;;;;4439497;32;20501;-71
2022/03/27 01:09:35;;;;;;;6.30;1.80;;;2.40;99.90;;;;;;4446821;32;20409;-70
2022/03/27 01:12:18;;;;;;;4.07;1.70;;;2.40;99.90;;;;;;4454320;32;20193;-70
2022/03/27 01:14:48;;;;;;;5.70;2.00;;;2.40;99.90;;;;;;4456136;32;20484;-69
2022/03/27 01:17:18;;;;;;;5.13;2.17;;;2.40;99.90;;;;;;4454461;32;20468;-69
2022/03/27 01:19:51;;;;;;;5.87;2.03;;;2.30;99.90;;;;;;4455935;32;20166;-70
2022/03/27 01:22:19;;;;;;;6.03;1.80;;;2.30;99.90;;;;;;4454421;32;20606;-70
2022/03/27 01:24:49;;;;;;;6.87;1.90;;;2.30;99.90;;;;;;4454030;32;20182;-70
2022/03/27 01:27:16;;;;;;;5.50;2.20;;;2.30;99.90;;;;;;4454877;32;20645;-70
2022/03/27 01:29:44;;;;;;;6.80;2.20;;;2.30;99.90;;;;;;4454739;32;20215;-69
2022/03/27 01:32:14;;;;;;;6.03;2.00;;;2.30;99.90;;;;;;4454683;32;20549;-70
2022/03/27 01:34:47;;;;;;;6.33;1.97;;;2.30;99.90;;;;;;4454005;32;20162;-70
2022/03/27 01:37:15;;;;;;;4.80;2.00;;;2.30;99.90;;;;;;4454955;32;20201;-70
2022/03/27 01:39:43;;;;;;;5.17;1.90;;;2.30;99.90;;;;;;4454635;32;20526;-70
2022/03/27 01:42:12;;;;;;;6.10;2.00;;;2.20;99.90;;;;;;4455124;32;20234;-70
2022/03/27 01:44:39;;;;;;;5.50;2.07;;;2.30;99.90;;;;;;4454011;32;20205;-70
2022/03/27 01:47:07;;;;;;;4.70;2.20;;;2.20;99.90;;;;;;4453987;32;20247;-70
2022/03/27 01:49:41;;;;;;;9.20;2.70;;;2.20;99.90;;;;;;4455161;32;20508;-70
2022/03/27 01:52:08;;;;;;;4.87;2.17;;;2.00;99.90;;;;;;4454146;32;20547;-70
2022/03/27 01:54:35;;;;;;;4.77;2.00;;;2.00;99.90;;;;;;4454758;32;20158;-70
2022/03/27 01:57:04;;;;;;;6.83;2.17;;;2.00;99.90;;;;;;4454872;32;20193;-70
2022/03/27 01:59:31;;;;;;;4.37;2.17;;;2.00;99.90;;;;;;4454907;32;20430;-70
2022/03/27 02:01:58;;;;;;;4.70;1.90;;;1.90;99.90;;;;;;4454779;32;20512;-70
2022/03/27 02:04:26;;;;;;;3.73;1.90;;;1.90;99.90;;;;;;4454086;32;20165;-70
2022/03/27 02:06:53;;;;;;;4.33;1.80;;;1.90;99.90;;;;;;4455209;32;20186;-70
2022/03/27 02:09:21;;;;;;;5.80;1.90;;;1.90;99.90;;;;;;4456351;32;20168;-70
2022/03/27 02:11:48;;;;;;;6.33;1.97;;;1.90;99.90;;;;;;4453444;32;20209;-70
2022/03/27 02:14:15;;;;;;;5.27;2.17;;;1.80;99.90;;;;;;4453752;32;20511;-71
2022/03/27 02:16:42;;;;;;;5.53;2.00;;;1.70;99.90;;;;;;4453057;32;20193;-70
2022/03/27 02:19:11;;;;;;;7.53;2.40;;;1.70;99.90;;;;;;4454102;32;20185;-70
2022/03/27 02:21:41;;;;;;;5.30;2.60;;;1.60;99.90;;;;;;4453776;32;20174;-70
2022/03/27 02:24:10;;;;;;;5.40;2.60;;;1.50;99.90;;;;;;4454701;32;20173;-70
2022/03/27 02:26:44;;;;;;;7.30;2.70;;;1.40;99.90;;;;;;4453018;32;20201;-70
2022/03/27 02:29:15;;;;;;;6.67;3.10;;;1.40;99.90;;;;;;4456173;32;20133;-70
2022/03/27 02:31:44;;;;;;;5.30;2.60;;;1.20;99.90;;;;;;4453896;32;20199;-69
2022/03/27 02:34:11;;;;;;;6.70;2.67;;;1.20;99.90;;;;;;4455358;32;20402;-70
2022/03/27 02:36:39;;;;;;;7.90;2.93;;;1.20;99.90;;;;;;4454772;32;20170;-70
2022/03/27 02:39:06;;;;;;;9.00;2.77;;;1.10;99.90;;;;;;4455362;32;20146;-70
2022/03/27 02:41:34;;;;;;;9.43;2.67;;;1.00;99.90;;;;;;4453754;32;20234;-70
2022/03/27 02:44:01;;;;;;;6.57;2.40;;;1.00;99.90;;;;;;4454716;32;20443;-70
2022/03/27 02:46:28;;;;;;;7.37;2.73;;;1.00;99.90;;;;;;4453713;32;20587;-70
2022/03/27 02:48:56;;;;;;;7.70;3.03;;;0.90;99.90;;;;;;4454664;32;20177;-70
2022/03/27 02:51:23;;;;;;;6.07;2.73;;;0.90;99.90;;;;;;4453111;32;20178;-70
2022/03/27 02:53:51;;;;;;;6.60;2.70;;;0.80;99.90;;;;;;4454908;32;20165;-70
2022/03/27 02:56:18;;;;;;;7.10;2.40;;;0.80;99.90;;;;;;4455273;32;20200;-70
2022/03/27 02:58:46;;;;;;;12.30;2.90;;;0.80;99.90;;;;;;4454810;32;20184;-70
2022/03/27 03:01:13;;;;;;;7.83;2.80;;;0.80;99.90;;;;;;4455401;32;20150;-70
2022/03/27 03:03:42;;;;;;;8.57;3.07;;;0.80;99.90;;;;;;4454667;32;20161;-70
2022/03/27 03:06:09;;;;;;;7.53;3.00;;;0.70;99.90;;;;;;4453031;32;20169;-70
2022/03/27 03:08:38;;;;;;;8.63;3.00;;;0.70;99.90;;;;;;4453230;32;20528;-70
2022/03/27 03:11:06;;;;;;;9.27;2.63;;;0.70;99.90;;;;;;4455425;32;20169;-69
2022/03/27 03:13:34;;;;;;;7.60;2.43;;;0.70;99.90;;;;;;4452879;32;20174;-69
2022/03/27 03:16:02;;;;;;;10.00;2.50;;;0.70;99.90;;;;;;4453663;32;20178;-69
2022/03/27 03:18:33;;;;;;;7.50;2.60;;;0.60;99.90;;;;;;4453270;32;20607;-70
2022/03/27 03:21:03;;;;;;;7.83;2.70;;;0.60;99.90;;;;;;4453439;32;20212;-70
2022/03/27 03:23:32;;;;;;;7.13;2.67;;;0.60;99.90;;;;;;4455236;32;20187;-70
2022/03/27 03:26:00;;;;;;;7.97;2.70;;;0.60;99.90;;;;;;4452326;32;20561;-70
2022/03/27 03:28:35;;;;;;;7.50;2.60;;;0.60;99.90;;;;;;4453247;32;20188;-70
2022/03/27 03:31:03;;;;;;;7.30;2.50;;;0.50;99.90;;;;;;4453710;32;20196;-70
2022/03/27 03:33:31;;;;;;;6.97;2.90;;;0.50;99.90;;;;;;4453071;32;20485;-70
2022/03/27 03:35:59;;;;;;;8.67;3.40;;;0.50;99.90;;;;;;4452273;32;20277;-70
2022/03/27 03:38:26;;;;;;;7.53;2.37;;;0.50;99.90;;;;;;4453475;32;20445;-70
2022/03/27 03:40:53;;;;;;;7.00;2.40;;;0.50;99.90;;;;;;4453570;32;20173;-69
2022/03/27 03:43:20;;;;;;;6.33;2.50;;;0.50;99.90;;;;;;4453307;32;20195;-70
2022/03/27 03:45:48;;;;;;;6.67;2.53;;;0.60;99.90;;;;;;4452395;32;20231;-70
2022/03/27 03:48:16;;;;;;;6.27;2.37;;;0.60;99.90;;;;;;4454576;32;20160;-70
2022/03/27 03:50:43;;;;;;;8.97;2.70;;;0.60;99.90;;;;;;4453273;32;20169;-70
2022/03/27 03:53:11;;;;;;;7.53;2.33;;;0.60;99.90;;;;;;4455784;32;20180;-70
2022/03/27 03:55:38;;;;;;;7.97;2.70;;;0.60;99.90;;;;;;4452871;32;20228;-70
2022/03/27 03:58:06;;;;;;;6.43;2.37;;;0.60;99.90;;;;;;4455004;32;20188;-70
2022/03/27 04:00:33;;;;;;;4.67;2.30;;;0.60;99.90;;;;;;4456311;32;20215;-70
2022/03/27 04:03:00;;;;;;;8.23;2.40;;;0.70;99.90;;;;;;4456510;32;20238;-69
2022/03/27 04:05:27;;;;;;;5.30;2.10;;;0.80;99.90;;;;;;4456313;32;20375;-70
2022/03/27 04:07:54;;;;;;;6.50;2.10;;;0.80;99.90;;;;;;4456665;32;20178;-70
2022/03/27 04:10:22;;;;;;;6.43;2.30;;;0.80;99.90;;;;;;4456992;32;20501;-70
2022/03/27 04:12:49;;;;;;;8.40;2.30;;;0.80;99.90;;;;;;4456405;32;20201;-69
2022/03/27 04:15:16;;;;;;;3.90;2.10;;;0.90;99.90;;;;;;4458281;32;20226;-70
2022/03/27 04:17:48;;;;;;;6.67;2.50;;;0.80;99.90;;;;;;4455627;32;20170;-70
2022/03/27 04:20:16;;;;;;;4.90;2.43;;;0.90;99.90;;;;;;4456399;32;20375;-70
2022/03/27 04:22:45;;;;;;;4.93;2.00;;;0.90;99.90;;;;;;4456088;32;20177;-70
2022/03/27 04:25:15;;;;;;;5.87;2.03;;;0.90;99.90;;;;;;4458089;32;20209;-70
2022/03/27 04:27:43;;;;;;;4.90;2.10;;;0.90;99.90;;;;;;4455371;32;20158;-70
2022/03/27 04:30:11;;;;;;;4.43;2.07;;;0.90;99.90;;;;;;4457011;32;20222;-70
2022/03/27 04:32:40;;;;;;;6.03;2.10;;;1.00;99.90;;;;;;4455946;32;20240;-69
2022/03/27 04:35:08;;;;;;;5.33;2.13;;;1.00;99.90;;;;;;4455417;32;20615;-70
2022/03/27 04:37:43;;;;;;;7.73;2.20;;;1.00;99.90;;;;;;4456986;32;20170;-70
2022/03/27 04:40:13;;;;;;;6.03;1.93;;;1.00;99.90;;;;;;4455699;32;20173;-70
2022/03/27 04:42:42;;;;;;;5.17;2.20;;;1.10;99.90;;;;;;4455289;32;20181;-70
2022/03/27 04:45:11;;;;;;;5.57;2.20;;;1.10;99.90;;;;;;4457129;32;20185;-70
2022/03/27 04:47:40;;;;;;;5.33;2.03;;;1.10;99.90;;;;;;4453968;32;20170;-70
2022/03/27 04:50:08;;;;;;;6.60;1.93;;;1.20;99.90;;;;;;4449741;32;20531;-70
2022/03/27 04:52:36;;;;;;;7.17;2.00;;;1.20;99.90;;;;;;4448826;32;20157;-70
2022/03/27 04:55:05;;;;;;;6.47;2.30;;;1.20;99.90;;;;;;4442146;32;20199;-70
2022/03/27 04:57:34;;;;;;;6.63;1.90;;;1.20;99.90;;;;;;4445297;32;20178;-70
2022/03/27 05:00:04;;;;;;;5.30;1.90;;;1.30;99.90;;;;;;4455416;32;20178;-70
2022/03/27 05:02:31;;;;;;;6.60;2.00;;;1.20;99.90;;;;;;4453877;32;20269;-70
2022/03/27 05:04:58;;;;;;;5.00;2.00;;;1.20;99.90;;;;;;4455210;32;20443;-70
2022/03/27 05:07:25;;;;;;;4.10;2.10;;;1.20;99.90;;;;;;4455265;32;20478;-70
2022/03/27 05:09:52;;;;;;;13.77;2.00;;;1.20;99.90;;;;;;4455755;32;20438;-70
2022/03/27 05:12:19;;;;;;;5.83;2.00;;;1.30;99.90;;;;;;4453795;32;20477;-70
2022/03/27 05:14:46;;;;;;;7.13;2.03;;;1.30;99.90;;;;;;4455187;32;20170;-70
2022/03/27 05:17:13;;;;;;;5.57;1.93;;;1.30;99.90;;;;;;4456800;32;20226;-69
2022/03/27 05:19:41;;;;;;;5.57;2.10;;;1.40;99.90;;;;;;4454628;32;20193;-70
2022/03/27 05:22:08;;;;;;;5.40;2.00;;;1.40;99.90;;;;;;4449982;32;20426;-69
2022/03/27 05:24:35;;;;;;;3.57;2.10;;;1.40;99.90;;;;;;4446361;32;20250;-69
2022/03/27 05:27:02;;;;;;;6.33;2.10;;;1.50;99.90;;;;;;4439478;32;20190;-70
2022/03/27 05:29:29;;;;;;;8.87;2.30;;;1.50;99.90;;;;;;4440759;32;20198;-69
2022/03/27 05:31:57;;;;;;;7.37;2.00;;;1.50;99.90;;;;;;4448116;32;20189;-70
2022/03/27 05:34:25;;;;;;;4.53;1.90;;;1.50;99.90;;;;;;4454211;32;20253;-69
2022/03/27 05:36:52;;;;;;;4.77;1.83;;;1.50;99.90;;;;;;4454888;32;20527;-69
2022/03/27 05:39:19;;;;;;;3.80;1.80;;;1.50;99.90;;;;;;4455853;32;20448;-70
2022/03/27 05:41:46;;;;;;;4.97;1.90;;;1.60;99.90;;;;;;4455448;32;20196;-70
2022/03/27 05:44:13;;;;;;;7.63;2.00;;;1.60;99.90;;;;;;4451893;32;20155;-69
2022/03/27 05:46:40;;;;;;;6.13;1.87;;;1.70;99.90;;;;;;4446397;32;20185;-70
2022/03/27 05:49:07;;;;;;;4.53;1.83;;;1.70;99.90;;;;;;4455122;32;20208;-70
2022/03/27 05:51:34;;;;;;;8.57;2.00;;;1.70;99.90;;;;;;4455313;32;20174;-69
2022/03/27 05:54:01;;;;;;;3.53;1.87;;;1.80;99.90;;;;;;4454014;32;20212;-69
2022/03/27 05:56:29;;;;;;;4.53;1.90;;;1.80;99.90;;;;;;4455660;32;20384;-70
2022/03/27 05:58:56;;;;;;;7.43;2.07;;;1.80;99.90;;;;;;4457112;32;20150;-69
2022/03/27 06:01:23;;;;;;;7.37;2.07;;;1.90;99.90;;;;;;4454358;32;20204;-69
2022/03/27 06:03:50;;;;;;;4.80;2.00;;;2.00;99.90;;;;;;4449331;32;20201;-69
2022/03/27 06:06:20;;;;;;;2.77;1.67;;;2.10;99.90;;;;;;4444394;32;20241;-69
2022/03/27 06:08:47;;;;;;;5.50;2.07;;;2.20;99.90;;;;;;4438434;32;20171;-70
2022/03/27 06:11:14;;;;;;;5.60;2.00;;;2.30;99.90;;;;;;4438681;32;20183;-69
2022/03/27 06:13:41;;;;;;;4.63;2.10;;;2.50;99.90;;;;;;4438517;32;20176;-69
2022/03/27 06:16:08;;;;;;;7.37;2.50;;;2.60;99.90;;;;;;4438191;32;20209;-70
2022/03/27 06:18:36;;;;;;;6.57;2.03;;;2.70;99.90;;;;;;4440642;32;20158;-69
2022/03/27 06:21:03;;;;;;;7.60;2.00;;;2.90;99.90;;;;;;4438906;32;20173;-69
2022/03/27 06:23:31;;;;;;;4.27;2.00;;;3.00;99.90;;;;;;4438948;32;20197;-70
2022/03/27 06:25:58;;;;;;;5.90;2.00;;;3.20;99.90;;;;;;4438017;32;20589;-70
2022/03/27 06:28:25;;;;;;;4.23;1.70;;;3.10;99.90;;;;;;4439096;32;20222;-70
2022/03/27 06:30:52;;;;;;;5.23;2.30;;;3.20;99.90;;;;;;4438525;32;20509;-70
2022/03/27 06:33:19;;;;;;;5.90;1.70;;;3.30;99.90;;;;;;4438648;32;20554;-70
2022/03/27 06:35:46;;;;;;;5.07;1.87;;;3.40;99.90;;;;;;4438475;32;20190;-70
2022/03/27 06:38:17;;;;;;;3.30;1.70;;;3.40;99.90;;;;;;4439417;32;20219;-70
2022/03/27 06:40:44;;;;;;;3.80;1.50;;;3.30;99.90;;;;;;4438047;32;20460;-70
2022/03/27 06:43:11;;;;;;;5.03;1.90;;;3.40;99.90;;;;;;4437534;32;20183;-70
2022/03/27 06:45:38;;;;;;;4.93;1.43;;;3.50;99.90;;;;;;4442719;32;20154;-70
2022/03/27 06:48:07;;;;;;;4.53;1.43;;;3.50;99.90;;;;;;4444873;32;20179;-67
2022/03/27 06:50:34;;;;;;;2.80;1.50;;;3.50;99.90;;;;;;4438925;32;20223;-67
2022/03/27 06:53:01;;;;;;;5.13;1.60;;;3.60;99.90;;;;;;4438051;32;20179;-67
2022/03/27 06:55:29;;;;;;;2.73;1.40;;;3.70;99.90;;;;;;4438616;32;20182;-67
2022/03/27 06:57:57;;;;;;;1.60;1.10;;;3.70;99.90;;;;;;4439636;32;20203;-67
2022/03/27 07:03:10;;;;;;;3.17;1.20;;;3.90;99.90;;;;;;4438470;32;20274;-67
2022/03/27 07:05:42;;;;;;;7.37;1.73;;;4.00;99.90;;;;;;4437749;32;20155;-67
2022/03/27 07:08:13;;;;;;;5.00;1.70;;;4.10;99.90;;;;;;4438744;32;20202;-67
2022/03/27 07:10:42;;;;;;;5.50;1.47;;;4.20;99.90;;;;;;4438736;32;20178;-67
2022/03/27 07:13:11;;;;;;;3.07;1.40;;;4.40;99.90;;;;;;4438150;32;20237;-67
2022/03/27 07:15:39;;;;;;;4.03;1.30;;;4.40;99.30;;;;;;4439300;32;20171;-67
2022/03/27 07:18:07;;;;;;;2.70;1.40;;;4.50;99.10;;;;;;4439006;32;20167;-67
2022/03/27 07:20:36;;;;;;;4.20;1.50;;;4.60;98.60;;;;;;4439075;32;20204;-67
2022/03/27 07:23:09;;;;;;;3.90;1.67;;;4.60;97.00;;;;;;4440236;32;20141;-67
2022/03/27 07:25:38;;;;;;;2.97;1.40;;;4.60;96.30;;;;;;4440369;32;20210;-67
2022/03/27 07:28:08;;;;;;;6.00;1.70;;;4.50;97.10;;;;;;4440649;32;20147;-68
2022/03/27 07:30:35;;;;;;;6.57;1.40;;;4.50;97.00;;;;;;4437369;32;20180;-67
2022/03/27 07:33:03;;;;;;;5.47;1.70;;;4.50;95.20;;;;;;4438520;32;20199;-67
2022/03/27 07:35:30;;;;;;;3.57;1.40;;;4.50;95.10;;;;;;4445393;32;20213;-67
2022/03/27 07:37:58;;;;;;;4.27;1.67;;;4.60;94.30;;;;;;4444979;32;20170;-68
2022/03/27 07:40:25;;;;;;;3.60;1.40;;;4.70;92.60;;;;;;4441890;32;20159;-67
2022/03/27 07:42:54;;;;;;;3.73;1.50;;;4.80;92.50;;;;;;4441508;32;20180;-67
2022/03/27 07:45:23;;;;;;;3.67;1.60;;;4.90;91.90;;;;;;4441868;32;20176;-67
2022/03/27 07:47:52;;;;;;;2.57;1.50;;;5.00;91.10;;;;;;4442133;32;20169;-67
2022/03/27 07:50:21;;;;;;;2.97;1.20;;;5.10;86.50;;;;;;4440309;32;20205;-67
2022/03/27 07:52:48;;;;;;;3.97;1.50;;;5.00;85.50;;;;;;4440715;32;20166;-68
2022/03/27 07:55:17;;;;;;;4.13;1.27;;;5.20;87.20;;;;;;4442721;32;20134;-68
2022/03/27 07:57:44;;;;;;;4.20;1.50;;;5.30;86.60;;;;;;4441506;32;20177;-68
2022/03/27 08:00:14;;;;;;;2.43;1.20;;;5.20;75.80;;;;;;4440420;32;20231;-67
2022/03/27 08:02:43;;;;;;;1.87;1.10;;;5.20;74.60;;;;;;4440008;32;20301;-67
2022/03/27 08:05:11;;;;;;;4.20;1.50;;;5.30;71.60;;;;;;4439897;32;20205;-67
2022/03/27 08:07:38;;;;;;;4.13;1.30;;;5.40;74.20;;;;;;4441359;32;20425;-67
2022/03/27 08:10:06;;;;;;;2.57;1.27;;;5.50;73.20;;;;;;4441579;32;20152;-67
2022/03/27 08:12:35;;;;;;;2.67;0.97;;;5.50;74.10;;;;;;4439263;32;20180;-67
2022/03/27 08:15:06;;;;;;;1.60;1.00;;;5.60;62.80;;;;;;4440419;32;20197;-68
2022/03/27 08:17:34;;;;;;;2.30;1.00;;;5.70;61.30;;;;;;4439792;32;20182;-68
2022/03/27 08:20:02;;;;;;;1.40;0.80;;;5.90;61.00;;;;;;4440947;32;20430;-68
2022/03/27 08:22:29;;;;;;;2.40;0.90;;;6.10;59.80;;;;;;4440501;32;20171;-68
2022/03/27 08:24:56;;;;;;;1.20;0.80;;;6.30;58.90;;;;;;4439909;32;20184;-68
2022/03/27 08:27:23;;;;;;;2.03;0.87;;;6.40;58.00;;;;;;4440654;32;20217;-68
2022/03/27 08:29:50;;;;;;;1.40;0.73;;;6.70;57.40;;;;;;4439913;32;20178;-68
2022/03/27 08:32:18;;;;;;;2.10;0.80;;;7.30;56.10;;;;;;4441098;32;20206;-68
2022/03/27 08:34:47;;;;;;;1.63;1.00;;;7.90;53.20;;;;;;4441281;32;20182;-68
2022/03/27 08:37:16;;;;;;;3.43;1.00;;;8.30;52.80;;;;;;4441781;32;20169;-68
2022/03/27 08:39:45;;;;;;;1.73;0.90;;;8.60;50.90;;;;;;4441649;32;20207;-67
2022/03/27 08:42:17;;;;;;;2.63;1.00;;;8.80;50.70;;;;;;4440370;32;20193;-67
2022/03/27 08:44:44;;;;;;;1.87;0.93;;;9.00;48.90;;;;;;4440414;32;20201;-68
2022/03/27 08:47:17;;;;;;;2.13;0.83;;;9.20;48.90;;;;;;4441535;32;20391;-67
2022/03/27 08:49:59;;;;;;;2.23;0.90;;;9.50;48.50;;;;;;4442582;32;20215;-68
2022/03/27 08:52:26;;;;;;;5.17;1.10;;;10.00;48.40;;;;;;4440910;32;20183;-67
2022/03/27 08:55:04;;;;;;;1.83;0.80;;;10.20;47.90;;;;;;4440108;32;20174;-68
2022/03/27 08:57:37;;;;;;;2.47;0.90;;;10.60;46.80;;;;;;4439989;32;20240;-67
2022/03/27 09:00:06;;;;;;;1.90;0.90;;;10.80;45.70;;;;;;4440732;32;20197;-68
2022/03/27 09:02:33;;;;;;;2.40;1.13;;;11.00;45.90;;;;;;4440733;32;20179;-68
2022/03/27 09:05:03;;;;;;;2.47;1.03;;;11.30;44.20;;;;;;4439219;32;20182;-68
2022/03/27 09:07:30;;;;;;;1.63;0.70;;;11.50;44.10;;;;;;4440054;32;20497;-68
2022/03/27 09:10:01;;;;;;;3.50;0.90;;;11.60;43.20;;;;;;4439214;32;20174;-69
2022/03/27 09:12:29;;;;;;;5.40;1.00;;;11.70;42.50;;;;;;4440684;32;20174;-69
2022/03/27 09:14:56;;;;;;;2.70;0.90;;;11.50;42.30;;;;;;4439059;32;21071;-69
2022/03/27 09:17:23;;;;;;;1.87;0.80;;;11.60;43.00;;;;;;4439490;32;20182;-68
2022/03/27 09:19:51;;;;;;;2.73;1.00;;;11.80;43.00;;;;;;4441650;32;20161;-68
2022/03/27 09:22:21;;;;;;;1.87;0.80;;;12.10;42.30;;;;;;4439455;32;20175;-68
2022/03/27 09:24:56;;;;;;;2.30;0.90;;;12.10;42.00;;;;;;4439116;32;20202;-68
2022/03/27 09:27:32;;;;;;;2.10;0.90;;;12.40;41.70;;;;;;4438852;32;20170;-68
2022/03/27 09:30:09;;;;;;;1.83;0.77;;;12.60;40.30;;;;;;4439724;32;20214;-68
2022/03/27 09:32:44;;;;;;;2.67;1.00;;;12.00;40.40;;;;;;4439295;32;20190;-68
2022/03/27 09:35:13;;;;;;;2.17;0.70;;;12.30;41.60;;;;;;4440474;32;20269;-68
2022/03/27 09:37:46;;;;;;;1.40;0.83;;;12.90;41.80;;;;;;4440648;32;20181;-68
2022/03/27 09:40:17;;;;;;;1.73;0.70;;;13.50;41.10;;;;;;4441004;32;20510;-68
2022/03/27 09:42:47;;;;;;;3.73;1.10;;;13.70;39.40;;;;;;4439878;32;20196;-68
2022/03/27 09:45:19;;;;;;;3.00;0.97;;;14.20;39.30;;;;;;4440325;32;20196;-68
2022/03/27 09:47:54;;;;;;;1.70;0.80;;;14.40;38.60;;;;;;4440434;32;20235;-69
2022/03/27 09:50:52;;;;;;;2.03;1.03;;;14.50;38.30;;;;;;4444821;32;20270;-69
2022/03/27 09:53:21;;;;;;;3.30;1.20;;;12.30;39.00;;;;;;4364866;32;20207;-68
2022/03/27 09:56:06;;;;;;;2.77;0.90;;;12.20;41.40;;;;;;4363829;32;20198;-68
2022/03/27 09:58:45;;;;;;;2.97;0.90;;;13.10;42.00;;;;;;4307206;33;20223;-68
2022/03/27 10:01:22;;;;;;;1.63;0.93;;;13.90;41.00;;;;;;4318367;33;20179;-66
2022/03/27 10:04:14;;;;;;;4.03;1.00;;;14.40;39.20;;;;;;4318924;33;20227;-66
2022/03/27 10:06:43;;;;;;;2.17;0.93;;;14.50;39.10;;;;;;4306566;33;20184;-67
2022/03/27 10:09:12;;;;;;;2.30;1.00;;;14.70;38.50;;;;;;4316332;33;20223;-66
2022/03/27 10:11:43;;;;;;;1.93;0.90;;;14.90;38.70;;;;;;4316286;33;20547;-66
2022/03/27 10:14:10;;;;;;;2.80;1.10;;;14.40;37.90;;;;;;4304356;33;20228;-66
2022/03/27 10:16:46;;;;;;;3.27;0.93;;;13.90;37.60;;;;;;4305550;33;20232;-66
2022/03/27 10:19:19;;;;;;;2.43;0.87;;;13.20;38.40;;;;;;4316884;33;20180;-65
2022/03/27 10:21:50;;;;;;;4.00;1.10;;;12.20;39.70;;;;;;4319006;33;20180;-66
2022/03/27 10:24:18;;;;;;;2.13;1.10;;;12.70;40.50;;;;;;4304470;33;20256;-66
2022/03/27 10:26:46;;;;;;;2.37;1.00;;;13.50;40.20;;;;;;4316251;33;20169;-66
2022/03/27 10:29:15;;;;;;;2.40;1.00;;;13.80;38.80;;;;;;4364228;32;20161;-67
2022/03/27 10:31:43;;;;;;;3.37;1.23;;;14.20;39.20;;;;;;4441330;32;20524;-67
2022/03/27 10:34:13;;;;;;;3.63;0.83;;;14.70;38.90;;;;;;4440797;32;20248;-67
2022/03/27 10:36:45;;;;;;;2.43;0.97;;;14.20;37.50;;;;;;4440879;32;20182;-67
2022/03/27 10:39:25;;;;;;;2.70;1.07;;;14.30;39.20;;;;;;4453704;32;20164;-67
2022/03/27 10:42:15;;;;;;;2.40;1.10;;;15.30;39.30;;;;;;4444219;32;20275;-67
2022/03/27 10:44:47;;;;;;;1.90;0.90;;;16.10;37.00;;;;;;4438819;32;20496;-67
2022/03/27 10:47:22;;;;;;;3.07;1.10;;;16.30;36.40;;;;;;4440989;32;20272;-67
2022/03/27 10:50:02;;;;;;;3.47;0.80;;;15.80;35.10;;;;;;4438882;32;20184;-67
2022/03/27 10:52:36;;;;;;;3.23;1.00;;;14.50;37.40;;;;;;4439501;32;20208;-67
2022/03/27 10:55:12;;;;;;;2.20;1.17;;;15.20;37.50;;;;;;4440970;32;20165;-66
2022/03/27 10:57:51;;;;;;;1.90;1.10;;;15.90;36.60;;;;;;4441039;32;20222;-67
2022/03/27 11:00:38;;;;;;;2.57;1.07;;;16.10;35.60;;;;;;4445953;32;20217;-67
2022/03/27 11:03:05;;;;;;;2.23;0.90;;;15.50;36.00;;;;;;4439030;32;20170;-67
2022/03/27 11:05:36;;;;;;;2.83;1.00;;;15.90;36.50;;;;;;4442876;32;20547;-67
2022/03/27 11:08:16;;;;;;;2.10;0.93;;;15.90;35.70;;;;;;4438334;32;20163;-67
2022/03/27 11:10:44;;;;;;;2.60;0.93;;;16.20;36.20;;;;;;4446621;32;20213;-67
2022/03/27 11:13:27;;;;;;;2.37;1.03;;;16.00;35.30;;;;;;4452447;32;20601;-67
2022/03/27 11:16:13;;;;;;;2.80;1.10;;;16.50;35.30;;;;;;4451742;32;20201;-67
2022/03/27 11:18:51;;;;;;;2.67;1.10;;;16.90;34.90;;;;;;4452539;32;20245;-67
2022/03/27 11:21:27;;;;;;;1.47;0.90;;;17.10;34.90;;;;;;4453320;32;20193;-68
2022/03/27 11:24:18;;;;;;;3.37;1.00;;;17.40;34.30;;;;;;4454645;32;20153;-67
2022/03/27 11:26:45;;;;;;;3.77;1.20;;;17.90;33.40;;;;;;4451724;32;20307;-68
2022/03/27 11:29:24;;;;;;;2.80;1.20;;;18.10;33.80;;;;;;4453499;32;20210;-68
2022/03/27 11:32:09;;;;;;;1.57;0.80;;;18.30;33.30;;;;;;4451601;32;20186;-67
2022/03/27 11:34:37;;;;;;;2.50;1.00;;;17.50;33.80;;;;;;4453022;32;20162;-67
2022/03/27 11:37:25;;;;;;;3.00;1.00;;;18.50;33.70;;;;;;4453245;32;20138;-67
2022/03/27 11:39:53;;;;;;;2.57;1.10;;;19.60;33.00;;;;;;4452461;32;20648;-68
2022/03/27 11:42:31;;;;;;;3.20;1.07;;;20.70;30.90;;;;;;4454675;32;20154;-69
2022/03/27 11:45:12;;;;;;;2.53;0.90;;;21.70;29.60;;;;;;4451975;32;20192;-67
2022/03/27 11:47:40;;;;;;;1.80;0.90;;;19.40;29.90;;;;;;4451942;32;20274;-68
2022/03/27 11:50:09;;;;;;;2.20;1.00;;;19.50;30.50;;;;;;4453403;32;20236;-67
2022/03/27 11:52:36;;;;;;;2.27;0.80;;;19.40;30.30;;;;;;4451870;32;20162;-68
2022/03/27 11:55:09;;;;;;;2.27;0.87;;;20.50;30.40;;;;;;4451386;32;20411;-67
2022/03/27 11:57:45;;;;;;;2.37;0.80;;;21.80;29.60;;;;;;4452285;32;20201;-67
2022/03/27 12:00:14;;;;;;;2.87;1.00;;;20.80;29.30;;;;;;4452382;32;20201;-68
2022/03/27 12:02:43;;;;;;;2.23;0.90;;;21.20;29.80;;;;;;4452614;32;20177;-68
2022/03/27 12:05:14;;;;;;;3.17;0.90;;;22.20;29.00;;;;;;4452970;32;20393;-67
2022/03/27 12:07:55;;;;;;;2.27;0.90;;;22.20;28.10;;;;;;4451673;32;20201;-68
2022/03/27 12:10:24;;;;;;;1.73;0.80;;;23.10;28.80;;;;;;4452432;32;20186;-67
2022/03/27 12:12:56;;;;;;;1.87;0.88;;;23.60;27.40;;;;;;4451505;32;20193;-67
2022/03/27 12:15:35;;;;;;;2.40;1.08;;;23.80;27.20;;;;;;4451732;32;20253;-67
2022/03/27 12:18:03;;;;;;;3.73;1.20;;;22.20;27.40;;;;;;4452057;32;20213;-67
2022/03/27 12:20:44;;;;;;;3.97;1.10;;;20.10;28.90;;;;;;4454105;32;20193;-67
2022/03/27 12:23:26;;;;;;;2.77;0.90;;;18.20;30.40;;;;;;4454961;32;20182;-68
2022/03/27 12:26:00;;;;;;;2.63;1.10;;;19.60;31.20;;;;;;4454001;32;20233;-68
2022/03/27 12:31:41;;;;;;;4.90;1.20;;;21.00;29.30;;;;;;4456326;32;20146;-68
2022/03/27 12:34:08;;;;;;;2.30;0.83;;;22.20;29.30;;;;;;4451872;32;20249;-68
2022/03/27 12:37:21;;;;;;;1.90;1.00;;;22.60;28.70;;;;;;4453849;32;20158;-68
2022/03/27 12:39:48;;;;;;;3.00;1.20;;;21.90;29.50;;;;;;4449875;32;20182;-68
2022/03/27 12:42:35;;;;;;;2.60;1.10;;;22.70;29.10;;;;;;4455295;32;20197;-67
2022/03/27 12:45:17;;;;;;;2.92;1.00;;;22.80;28.10;;;;;;4453953;32;20249;-67
2022/03/27 12:47:50;;;;;;;2.70;1.03;;;23.60;28.10;;;;;;4454110;32;20227;-67
2022/03/27 12:50:40;;;;;;;3.58;0.95;;;24.00;27.30;;;;;;4453811;32;20205;-67
2022/03/27 12:53:12;;;;;;;5.20;1.15;;;22.30;28.30;;;;;;4454647;32;20181;-66
2022/03/27 12:55:56;;;;;;;1.80;0.90;;;20.90;28.80;;;;;;4454256;32;21428;-67
2022/03/27 12:58:35;;;;;;;3.13;1.00;;;19.90;29.70;;;;;;4453985;32;20169;-67
2022/03/27 13:01:23;;;;;;;1.77;0.80;;;19.50;32.30;;;;;;4455294;32;20162;-67
2022/03/27 13:04:06;;;;;;;2.30;1.00;;;21.20;30.80;;;;;;4453629;32;20223;-67
2022/03/27 13:06:43;;;;;;;2.90;1.10;;;22.50;29.50;;;;;;4453776;32;20420;-67
2022/03/27 13:09:20;;;;;;;2.30;1.00;;;23.10;28.50;;;;;;4454177;32;20209;-68
2022/03/27 13:11:48;;;;;;;3.13;1.10;;;23.30;28.40;;;;;;4454215;32;20181;-68
2022/03/27 13:14:16;;;;;;;3.10;1.20;;;21.90;28.10;;;;;;4455132;32;20176;-68
2022/03/27 13:16:48;;;;;;;2.87;1.10;;;21.80;29.10;;;;;;4455618;32;20174;-69